createdAt,value
2022-09-18T00:00:25.124Z,7.31
2022-09-18T00:01:25.484Z,7.33
2022-09-18T00:02:25.560Z,7.34
2022-09-18T00:03:25.638Z,7.31
2022-09-18T00:04:25.316Z,7.26
2022-09-18T00:05:25.702Z,7.22
2022-09-18T00:06:25.301Z,7.29
2022-09-18T00:07:25.278Z,7.23
2022-09-18T00:08:24.998Z,7.27
2022-09-18T00:09:25.245Z,7.27
2022-09-18T00:10:25.228Z,7.26
2022-09-18T00:11:25.468Z,7.31
2022-09-18T00:12:25.197Z,7.33
2022-09-18T00:13:24.929Z,7.31
2022-09-18T00:14:25.411Z,7.29
2022-09-18T00:15:25.412Z,7.23
2022-09-18T00:16:25.326Z,7.27
2022-09-18T00:17:25.127Z,7.23
2022-09-18T00:18:24.855Z,7.23
2022-09-18T00:19:24.833Z,7.23
2022-09-18T00:20:25.084Z,7.23
2022-09-18T00:21:25.451Z,7.23
2022-09-18T00:22:25.305Z,7.23
2022-09-18T00:23:25.286Z,7.19
2022-09-18T00:24:25.033Z,7.23
2022-09-18T00:25:25.006Z,7.23
2022-09-18T00:26:25.259Z,7.26
2022-09-18T00:27:25.227Z,7.18
2022-09-18T00:28:24.706Z,7.21
2022-09-18T00:29:24.948Z,7.22
2022-09-18T00:30:25.167Z,7.23
2022-09-18T00:31:25.081Z,7.21
2022-09-18T00:32:24.904Z,7.15
2022-09-18T00:33:24.889Z,7.23
2022-09-18T00:34:25.130Z,7.18
2022-09-18T00:35:25.113Z,7.15
2022-09-18T00:36:25.097Z,7.22
2022-09-18T00:37:24.952Z,7.21
2022-09-18T00:38:25.072Z,7.18
2022-09-18T00:39:25.056Z,7.22
2022-09-18T00:40:25.021Z,7.22
2022-09-18T00:41:24.775Z,7.26
2022-09-18T00:42:24.755Z,7.26
2022-09-18T00:43:24.478Z,7.18
2022-09-18T00:44:24.978Z,7.26
2022-09-18T00:45:24.707Z,7.16
2022-09-18T00:46:25.142Z,7.22
2022-09-18T00:47:24.422Z,7.22
2022-09-18T00:48:24.662Z,7.16
2022-09-18T00:49:24.647Z,7.11
2022-09-18T00:50:24.648Z,7.16
2022-09-18T00:51:24.617Z,7.26
2022-09-18T00:52:24.618Z,7.18
2022-09-18T00:53:24.710Z,7.19
2022-09-18T00:54:24.607Z,7.15
2022-09-18T00:55:24.558Z,7.22
2022-09-18T00:56:24.561Z,7.23
2022-09-18T00:57:24.671Z,7.19
2022-09-18T00:58:24.524Z,7.26
2022-09-18T00:59:24.278Z,7.18
2022-09-18T01:00:24.766Z,7.26
2022-09-18T01:01:24.445Z,7.18
2022-09-18T01:02:25.255Z,7.23
2022-09-18T01:03:24.455Z,7.27
2022-09-18T01:04:24.424Z,7.18
2022-09-18T01:05:24.409Z,7.18
2022-09-18T01:06:24.393Z,7.21
2022-09-18T01:07:24.374Z,7.22
2022-09-18T01:08:24.366Z,7.22
2022-09-18T01:09:33.301Z,7.19
2022-09-18T01:10:24.341Z,7.22
2022-09-18T01:11:24.066Z,7.22
2022-09-18T01:12:24.559Z,7.19
2022-09-18T01:13:24.291Z,7.16
2022-09-18T01:14:24.021Z,7.22
2022-09-18T01:15:24.254Z,7.21
2022-09-18T01:16:24.420Z,7.21
2022-09-18T01:17:23.970Z,7.23
2022-09-18T01:18:24.751Z,7.21
2022-09-18T01:19:23.939Z,7.23
2022-09-18T01:20:24.432Z,7.26
2022-09-18T01:21:23.913Z,7.22
2022-09-18T01:22:23.898Z,7.19
2022-09-18T01:23:24.397Z,7.22
2022-09-18T01:24:24.120Z,7.19
2022-09-18T01:25:24.513Z,7.26
2022-09-18T01:26:24.351Z,7.22
2022-09-18T01:27:24.082Z,7.26
2022-09-18T01:28:24.052Z,7.23
2022-09-18T01:29:24.296Z,7.22
2022-09-18T01:30:24.024Z,7.22
2022-09-18T01:31:24.247Z,7.19
2022-09-18T01:32:23.745Z,7.26
2022-09-18T01:33:24.008Z,7.26
2022-09-18T01:35:45.333Z,7.21
2022-09-18T01:36:24.194Z,7.23
2022-09-18T01:37:23.928Z,7.18
2022-09-18T01:38:24.167Z,7.21
2022-09-18T01:39:23.893Z,7.3
2022-09-18T01:40:24.448Z,7.21
2022-09-18T01:41:23.995Z,7.15
2022-09-18T01:42:23.852Z,7.22
2022-09-18T01:43:23.580Z,7.19
2022-09-18T01:44:24.072Z,7.23
2022-09-18T01:45:23.809Z,7.3
2022-09-18T01:46:24.389Z,7.27
2022-09-18T01:47:23.772Z,7.27
2022-09-18T01:48:23.788Z,7.26
2022-09-18T01:49:23.740Z,7.27
2022-09-18T01:50:24.115Z,7.34
2022-09-18T01:51:23.837Z,7.37
2022-09-18T01:52:23.949Z,7.31
2022-09-18T01:53:23.942Z,7.33
2022-09-18T01:54:23.669Z,7.31
2022-09-18T01:55:23.403Z,7.37
2022-09-18T01:56:23.891Z,7.45
2022-09-18T01:57:23.744Z,7.39
2022-09-18T01:58:23.631Z,7.39
2022-09-18T01:59:23.340Z,7.47
2022-09-18T02:00:23.321Z,7.45
2022-09-18T02:01:24.019Z,7.4
2022-09-18T02:02:23.697Z,7.37
2022-09-18T02:03:23.536Z,7.44
2022-09-18T02:04:23.263Z,7.44
2022-09-18T02:05:23.242Z,7.48
2022-09-18T02:06:23.616Z,7.54
2022-09-18T02:07:23.850Z,7.41
2022-09-18T02:08:23.204Z,7.49
2022-09-18T02:09:23.184Z,7.45
2022-09-18T02:10:23.420Z,7.41
2022-09-18T02:11:23.423Z,7.51
2022-09-18T02:12:23.143Z,7.37
2022-09-18T02:13:23.507Z,7.39
2022-09-18T02:14:23.365Z,7.45
2022-09-18T02:15:23.350Z,7.49
2022-09-18T02:16:23.418Z,7.54
2022-09-18T02:17:23.062Z,7.54
2022-09-18T02:18:23.561Z,7.52
2022-09-18T02:19:23.296Z,7.41
2022-09-18T02:20:23.275Z,7.56
2022-09-18T02:21:23.264Z,7.51
2022-09-18T02:22:23.624Z,7.58
2022-09-18T02:23:23.388Z,7.56
2022-09-18T02:24:23.216Z,7.54
2022-09-18T02:25:23.458Z,7.55
2022-09-18T02:26:23.187Z,7.47
2022-09-18T02:27:23.170Z,7.49
2022-09-18T02:28:22.905Z,7.44
2022-09-18T02:29:23.257Z,7.48
2022-09-18T02:30:23.125Z,7.47
2022-09-18T02:31:23.309Z,7.47
2022-09-18T02:32:23.093Z,7.47
2022-09-18T02:33:23.092Z,7.54
2022-09-18T02:34:23.327Z,7.55
2022-09-18T02:35:23.312Z,7.49
2022-09-18T02:36:23.288Z,7.51
2022-09-18T02:37:23.021Z,7.54
2022-09-18T02:38:23.386Z,7.55
2022-09-18T02:39:23.123Z,7.52
2022-09-18T02:40:23.203Z,7.52
2022-09-18T02:41:23.217Z,7.47
2022-09-18T02:42:23.205Z,7.52
2022-09-18T02:43:23.195Z,7.49
2022-09-18T02:44:22.933Z,7.52
2022-09-18T02:45:23.016Z,7.49
2022-09-18T02:46:23.074Z,7.59
2022-09-18T02:47:22.611Z,7.45
2022-09-18T02:48:23.116Z,7.48
2022-09-18T02:49:23.093Z,7.54
2022-09-18T02:50:22.568Z,7.52
2022-09-18T02:51:22.816Z,7.51
2022-09-18T02:52:22.800Z,7.49
2022-09-18T02:53:22.785Z,7.58
2022-09-18T02:54:22.959Z,7.47
2022-09-18T02:55:22.875Z,7.58
2022-09-18T02:56:22.746Z,7.63
2022-09-18T02:57:22.466Z,7.49
2022-09-18T02:58:22.713Z,7.64
2022-09-18T02:59:22.706Z,7.59
2022-09-18T03:00:22.943Z,7.56
2022-09-18T03:01:23.321Z,7.61
2022-09-18T03:02:23.173Z,7.63
2022-09-18T03:03:22.654Z,7.64
2022-09-18T03:04:22.882Z,7.61
2022-09-18T03:05:22.626Z,7.56
2022-09-18T03:06:22.861Z,7.55
2022-09-18T03:07:22.829Z,7.59
2022-09-18T03:08:22.565Z,7.58
2022-09-18T03:09:22.560Z,7.59
2022-09-18T03:10:22.901Z,7.56
2022-09-18T03:11:22.384Z,7.59
2022-09-18T03:12:22.501Z,7.59
2022-09-18T03:13:22.750Z,7.56
2022-09-18T03:14:22.731Z,7.55
2022-09-18T03:15:22.456Z,7.63
2022-09-18T03:16:23.064Z,7.56
2022-09-18T03:17:22.812Z,7.59
2022-09-18T03:18:22.166Z,7.59
2022-09-18T03:19:22.661Z,7.56
2022-09-18T03:20:22.651Z,7.52
2022-09-18T03:21:22.117Z,7.63
2022-09-18T03:22:22.609Z,7.59
2022-09-18T03:23:22.604Z,7.63
2022-09-18T03:24:22.333Z,7.56
2022-09-18T03:25:22.569Z,7.58
2022-09-18T03:26:22.483Z,7.63
2022-09-18T03:27:22.666Z,7.59
2022-09-18T03:28:22.273Z,7.47
2022-09-18T03:29:22.252Z,7.48
2022-09-18T03:30:22.496Z,7.48
2022-09-18T03:31:22.527Z,7.45
2022-09-18T03:32:22.469Z,7.45
2022-09-18T03:49:32.696Z,6.73
2022-09-18T03:50:32.046Z,6.7
2022-09-18T03:51:32.295Z,6.78
2022-09-18T03:52:32.270Z,6.75
2022-09-18T03:53:32.285Z,6.72
2022-09-18T03:54:31.983Z,6.75
2022-09-18T03:55:31.718Z,6.65
2022-09-18T03:56:32.210Z,6.65
2022-09-18T03:57:32.186Z,6.7
2022-09-18T03:58:32.171Z,6.67
2022-09-18T03:59:32.307Z,6.62
2022-09-18T04:00:32.136Z,6.73
2022-09-18T04:01:32.126Z,6.72
2022-09-18T04:02:32.245Z,6.76
2022-09-18T04:03:31.909Z,6.8
2022-09-18T04:04:32.082Z,6.78
2022-09-18T04:05:32.441Z,6.83
2022-09-18T04:06:31.537Z,6.9
2022-09-18T04:07:31.776Z,6.86
2022-09-18T04:08:32.024Z,6.86
2022-09-18T04:09:31.749Z,6.82
2022-09-18T04:10:31.731Z,6.82
2022-09-18T04:11:31.713Z,6.86
2022-09-18T04:12:31.731Z,6.82
2022-09-18T04:13:31.985Z,6.9
2022-09-18T04:14:35.068Z,6.9
2022-09-18T04:15:31.912Z,6.91
2022-09-18T04:16:32.148Z,6.9
2022-09-18T04:17:31.875Z,6.94
2022-09-18T04:18:31.604Z,6.97
2022-09-18T04:19:31.597Z,7.01
2022-09-18T04:20:31.578Z,7
2022-09-18T04:21:32.222Z,7.01
2022-09-18T04:22:31.545Z,6.98
2022-09-18T04:23:31.537Z,7.04
2022-09-18T04:24:31.509Z,7.11
2022-09-18T04:25:31.496Z,7.05
2022-09-18T04:26:31.487Z,7.08
2022-09-18T04:27:31.215Z,7.05
2022-09-18T04:28:31.454Z,6.98
2022-09-18T04:29:31.435Z,6.98
2022-09-18T04:30:31.686Z,7.05
2022-09-18T04:31:31.611Z,7.01
2022-09-18T04:32:31.640Z,6.93
2022-09-18T04:33:31.376Z,6.9
2022-09-18T04:34:31.362Z,6.83
2022-09-18T04:35:31.604Z,6.93
2022-09-18T04:36:31.334Z,6.88
2022-09-18T04:37:31.949Z,6.86
2022-09-18T04:38:31.304Z,6.95
2022-09-18T04:39:31.292Z,6.94
2022-09-18T04:40:31.609Z,6.86
2022-09-18T04:41:31.516Z,6.95
2022-09-18T04:42:31.493Z,7
2022-09-18T04:43:31.480Z,7.01
2022-09-18T04:44:30.961Z,7.05
2022-09-18T04:45:31.196Z,6.98
2022-09-18T04:46:31.149Z,6.98
2022-09-18T04:47:31.212Z,6.98
2022-09-18T04:48:31.153Z,7.08
2022-09-18T04:49:31.396Z,7.12
2022-09-18T04:50:31.121Z,7.16
2022-09-18T04:51:30.853Z,7.15
2022-09-18T04:52:31.096Z,7.15
2022-09-18T04:53:31.703Z,7.15
2022-09-18T04:54:31.071Z,7.16
2022-09-18T04:55:31.046Z,7.18
2022-09-18T04:56:31.301Z,7.21
2022-09-18T04:57:31.020Z,7.21
2022-09-18T04:58:30.752Z,7.18
2022-09-18T04:59:31.238Z,7.23
2022-09-18T05:00:31.203Z,7.21
2022-09-18T05:01:31.045Z,7.16
2022-09-18T05:02:31.224Z,7.19
2022-09-18T05:03:30.670Z,7.16
2022-09-18T05:04:30.659Z,7.16
2022-09-18T05:05:31.202Z,7.19
2022-09-18T05:06:31.140Z,7.04
2022-09-18T05:07:31.124Z,7.15
2022-09-18T05:08:30.856Z,7.21
2022-09-18T05:09:31.476Z,7.18
2022-09-18T05:10:30.824Z,7.15
2022-09-18T05:11:30.710Z,7.26
2022-09-18T05:12:30.802Z,7.22
2022-09-18T05:13:31.039Z,7.21
2022-09-18T05:14:30.762Z,7.19
2022-09-18T05:15:31.009Z,7.23
2022-09-18T05:16:31.018Z,7.23
2022-09-18T05:17:30.974Z,7.19
2022-09-18T05:18:30.448Z,7.22
2022-09-18T05:19:30.948Z,7.3
2022-09-18T05:20:30.941Z,7.26
2022-09-18T05:21:30.918Z,7.34
2022-09-18T05:22:30.902Z,7.33
2022-09-18T05:23:30.635Z,7.36
2022-09-18T05:24:30.620Z,7.44
2022-09-18T05:25:31.237Z,7.37
2022-09-18T05:26:30.591Z,7.4
2022-09-18T05:27:31.415Z,7.49
2022-09-18T05:28:30.563Z,7.47
2022-09-18T05:29:30.290Z,7.41
2022-09-18T05:30:30.528Z,7.56
2022-09-18T05:31:30.935Z,7.45
2022-09-18T05:32:30.499Z,7.54
2022-09-18T05:33:30.486Z,7.55
2022-09-18T05:34:30.476Z,7.41
2022-09-18T05:35:30.451Z,7.48
2022-09-18T05:36:30.701Z,7.54
2022-09-18T05:37:30.684Z,7.52
2022-09-18T05:38:30.156Z,7.45
2022-09-18T05:39:30.400Z,7.63
2022-09-18T05:40:30.622Z,7.55
2022-09-18T05:41:31.002Z,7.52
2022-09-18T05:42:30.355Z,7.48
2022-09-18T05:43:30.340Z,7.54
2022-09-18T05:44:30.570Z,7.59
2022-09-18T05:45:30.048Z,7.54
2022-09-18T05:46:30.543Z,7.64
2022-09-18T05:47:30.283Z,7.61
2022-09-18T05:48:30.261Z,7.7
2022-09-18T05:49:30.511Z,7.56
2022-09-18T05:50:30.239Z,7.58
2022-09-18T05:51:30.478Z,7.67
2022-09-18T05:52:30.200Z,7.67
2022-09-18T05:53:30.198Z,7.77
2022-09-18T05:54:29.921Z,7.86
2022-09-18T05:55:33.841Z,7.74
2022-09-18T05:56:30.456Z,7.83
2022-09-18T05:57:30.757Z,7.78
2022-09-18T05:58:30.121Z,7.8
2022-09-18T05:59:30.101Z,7.82
2022-09-18T06:00:30.358Z,7.8
2022-09-18T06:01:30.229Z,7.78
2022-09-18T06:02:30.448Z,7.8
2022-09-18T06:03:30.200Z,7.86
2022-09-18T06:04:30.035Z,7.86
2022-09-18T06:05:30.029Z,7.88
2022-09-18T06:06:30.035Z,7.89
2022-09-18T06:07:30.023Z,7.86
2022-09-18T06:08:30.012Z,7.88
2022-09-18T06:09:29.714Z,7.88
2022-09-18T06:10:30.308Z,7.92
2022-09-18T06:11:29.957Z,7.83
2022-09-18T06:12:29.917Z,7.83
2022-09-18T06:13:30.542Z,7.95
2022-09-18T06:14:29.901Z,7.92
2022-09-18T06:15:30.125Z,7.98
2022-09-18T06:16:29.844Z,7.99
2022-09-18T06:17:29.852Z,7.91
2022-09-18T06:18:29.585Z,8.01
2022-09-18T06:19:29.563Z,7.99
2022-09-18T06:20:30.178Z,8.01
2022-09-18T06:21:29.805Z,8.03
2022-09-18T06:22:29.787Z,8.1
2022-09-18T06:23:29.758Z,8.04
2022-09-18T06:24:30.021Z,7.98
2022-09-18T06:25:29.722Z,7.96
2022-09-18T06:26:29.461Z,7.91
2022-09-18T06:27:29.699Z,8.01
2022-09-18T06:28:29.684Z,7.99
2022-09-18T06:29:30.287Z,7.96
2022-09-18T06:30:29.948Z,7.95
2022-09-18T06:31:29.897Z,8.01
2022-09-18T06:32:29.633Z,7.95
2022-09-18T06:33:29.612Z,7.99
2022-09-18T06:34:29.601Z,7.96
2022-09-18T06:35:29.843Z,8.03
2022-09-18T06:36:29.314Z,8.03
2022-09-18T06:37:29.577Z,8.09
2022-09-18T06:38:29.796Z,8.09
2022-09-18T06:39:29.530Z,8.13
2022-09-18T06:40:29.882Z,8.24
2022-09-18T06:41:29.494Z,8.22
2022-09-18T06:42:29.486Z,8.32
2022-09-18T06:43:29.732Z,8.28
2022-09-18T06:44:29.465Z,8.35
2022-09-18T06:45:30.062Z,8.34
2022-09-18T06:46:29.876Z,8.36
2022-09-18T06:47:29.419Z,8.44
2022-09-18T06:48:29.654Z,8.49
2022-09-18T06:49:29.384Z,8.58
2022-09-18T06:50:29.207Z,8.57
2022-09-18T06:51:29.623Z,8.64
2022-09-18T06:52:29.088Z,8.74
2022-09-18T06:53:29.585Z,8.74
2022-09-18T06:54:29.316Z,8.87
2022-09-18T06:55:29.047Z,8.95
2022-09-18T06:56:29.291Z,8.95
2022-09-18T06:57:29.528Z,8.94
2022-09-18T06:58:29.005Z,8.83
2022-09-18T06:59:29.040Z,8.74
2022-09-18T07:00:29.490Z,8.72
2022-09-18T07:01:30.101Z,8.69
2022-09-18T07:02:29.119Z,8.61
2022-09-18T07:03:28.949Z,8.62
2022-09-18T07:04:29.179Z,8.58
2022-09-18T07:05:29.421Z,8.62
2022-09-18T07:06:29.408Z,8.74
2022-09-18T07:07:29.143Z,8.89
2022-09-18T07:08:28.875Z,8.8
2022-09-18T07:09:29.360Z,8.83
2022-09-18T07:10:29.208Z,8.74
2022-09-18T07:11:29.338Z,8.77
2022-09-18T07:12:29.330Z,8.79
2022-09-18T07:13:29.053Z,8.69
2022-09-18T07:14:29.046Z,8.86
2022-09-18T07:15:29.042Z,8.86
2022-09-18T07:16:29.279Z,9.08
2022-09-18T07:17:31.693Z,9.27
2022-09-18T07:18:29.242Z,9.37
2022-09-18T07:19:28.971Z,9.35
2022-09-18T07:20:29.056Z,9.39
2022-09-18T07:21:28.689Z,9.34
2022-09-18T07:22:28.678Z,9.45
2022-09-18T07:23:28.661Z,9.45
2022-09-18T07:24:29.157Z,9.41
2022-09-18T07:25:29.154Z,9.34
2022-09-18T07:26:28.626Z,9.32
2022-09-18T07:27:28.867Z,9.27
2022-09-18T07:28:29.102Z,9.29
2022-09-18T07:29:29.091Z,9.38
2022-09-18T07:30:28.671Z,9.23
2022-09-18T07:31:29.176Z,9.19
2022-09-18T07:32:28.793Z,9.3
2022-09-18T07:33:29.407Z,9.34
2022-09-18T07:34:28.774Z,9.44
2022-09-18T07:35:28.510Z,9.53
2022-09-18T07:36:28.745Z,9.52
2022-09-18T07:37:28.731Z,9.55
2022-09-18T07:38:28.732Z,9.52
2022-09-18T07:39:28.710Z,9.48
2022-09-18T07:40:28.987Z,9.6
2022-09-18T07:41:28.430Z,9.63
2022-09-18T07:42:28.409Z,9.81
2022-09-18T07:43:28.947Z,9.78
2022-09-18T07:44:28.923Z,9.88
2022-09-18T07:45:28.641Z,9.89
2022-09-18T07:46:28.869Z,9.89
2022-09-18T07:47:28.856Z,9.81
2022-09-18T07:48:28.837Z,9.81
2022-09-18T07:49:29.208Z,9.84
2022-09-18T07:50:28.567Z,9.85
2022-09-18T07:51:31.244Z,9.81
2022-09-18T07:52:28.531Z,9.92
2022-09-18T07:53:28.774Z,9.95
2022-09-18T07:54:28.515Z,10.02
2022-09-18T07:55:28.492Z,10.05
2022-09-18T07:56:28.480Z,10.07
2022-09-18T07:57:28.227Z,10.07
2022-09-18T07:58:28.459Z,10.18
2022-09-18T07:59:28.194Z,10.21
2022-09-18T08:00:28.429Z,10.28
2022-09-18T08:01:28.418Z,10.29
2022-09-18T08:02:28.776Z,10.31
2022-09-18T08:03:28.400Z,10.44
2022-09-18T08:04:28.641Z,10.55
2022-09-18T08:05:28.987Z,10.69
2022-09-18T08:06:28.107Z,10.63
2022-09-18T08:07:28.366Z,10.65
2022-09-18T08:08:28.334Z,10.54
2022-09-18T08:09:28.574Z,10.51
2022-09-18T08:10:28.310Z,10.46
2022-09-18T08:11:28.563Z,10.51
2022-09-18T08:12:28.043Z,10.73
2022-09-18T08:13:28.528Z,10.79
2022-09-18T08:14:33.307Z,11.03
2022-09-18T08:15:28.247Z,11.12
2022-09-18T08:16:28.527Z,11.15
2022-09-18T08:17:28.217Z,11.02
2022-09-18T08:18:28.210Z,10.98
2022-09-18T08:19:28.200Z,10.92
2022-09-18T08:20:28.192Z,11.06
2022-09-18T08:21:28.784Z,11.13
2022-09-18T08:22:28.432Z,11.03
2022-09-18T08:23:28.410Z,11.12
2022-09-18T08:24:28.148Z,11.08
2022-09-18T08:25:28.135Z,11.2
2022-09-18T08:26:28.370Z,11.34
2022-09-18T08:27:27.846Z,11.42
2022-09-18T08:28:27.842Z,11.49
2022-09-18T08:29:28.330Z,11.66
2022-09-18T08:30:28.068Z,11.7
2022-09-18T08:31:28.302Z,11.51
2022-09-18T08:32:28.302Z,11.48
2022-09-18T08:33:28.284Z,11.45
2022-09-18T08:34:27.818Z,11.35
2022-09-18T08:35:28.272Z,11.33
2022-09-18T08:36:27.994Z,11.31
2022-09-18T08:37:28.643Z,11.24
2022-09-18T08:38:27.995Z,11.09
2022-09-18T08:39:27.972Z,11.03
2022-09-18T08:40:28.367Z,11.1
2022-09-18T08:41:27.940Z,11.1
2022-09-18T08:42:30.715Z,11.16
2022-09-18T08:43:28.176Z,11.23
2022-09-18T08:44:27.914Z,11.27
2022-09-18T08:45:27.893Z,11.26
2022-09-18T08:46:28.319Z,11.24
2022-09-18T08:47:28.133Z,11.27
2022-09-18T08:48:27.863Z,11.28
2022-09-18T08:49:27.854Z,11.48
2022-09-18T08:50:27.582Z,11.41
2022-09-18T08:51:28.089Z,11.42
2022-09-18T08:52:27.822Z,11.51
2022-09-18T08:53:28.452Z,11.41
2022-09-18T08:54:27.791Z,11.31
2022-09-18T08:55:28.043Z,11.3
2022-09-18T08:56:27.519Z,11.3
2022-09-18T08:57:28.020Z,11.26
2022-09-18T08:58:27.492Z,11.3
2022-09-18T08:59:27.990Z,11.42
2022-09-18T09:00:27.741Z,11.43
2022-09-18T09:01:28.181Z,11.31
2022-09-18T09:02:30.076Z,11.35
2022-09-18T09:03:27.428Z,11.39
2022-09-18T09:04:27.690Z,11.39
2022-09-18T09:05:27.414Z,11.28
2022-09-18T09:06:27.649Z,11.33
2022-09-18T09:07:27.638Z,11.46
2022-09-18T09:08:27.885Z,11.52
2022-09-18T09:09:28.239Z,11.52
2022-09-18T09:10:27.613Z,11.57
2022-09-18T09:11:27.343Z,11.51
2022-09-18T09:12:27.587Z,11.43
2022-09-18T09:13:27.585Z,11.39
2022-09-18T09:14:59.909Z,11.45
2022-09-18T09:15:27.815Z,11.35
2022-09-18T09:16:28.038Z,11.28
2022-09-18T09:17:27.787Z,11.26
2022-09-18T09:18:27.522Z,11.26
2022-09-18T09:19:27.783Z,11.49
2022-09-18T09:20:27.501Z,11.57
2022-09-18T09:21:27.485Z,11.68
2022-09-18T09:22:27.221Z,11.97
2022-09-18T09:23:27.729Z,12.19
2022-09-18T09:24:27.456Z,12.28
2022-09-18T09:25:28.058Z,12.53
2022-09-18T09:26:27.432Z,12.58
2022-09-18T09:27:27.423Z,12.61
2022-09-18T09:28:27.409Z,12.63
2022-09-18T09:29:27.404Z,12.61
2022-09-18T09:30:27.379Z,12.47
2022-09-18T09:31:27.527Z,12.38
2022-09-18T09:32:27.113Z,12.51
2022-09-18T09:33:27.604Z,12.59
2022-09-18T09:34:27.335Z,12.77
2022-09-18T09:35:27.587Z,12.89
2022-09-18T09:36:27.064Z,12.94
2022-09-18T09:37:30.615Z,12.76
2022-09-18T09:38:27.045Z,12.83
2022-09-18T09:39:27.288Z,12.69
2022-09-18T09:40:27.465Z,12.61
2022-09-18T09:41:27.895Z,12.56
2022-09-18T09:42:27.263Z,12.45
2022-09-18T09:43:26.991Z,12.38
2022-09-18T09:44:26.982Z,12.26
2022-09-18T09:45:27.229Z,12.1
2022-09-18T09:46:27.680Z,11.78
2022-09-18T09:47:27.462Z,11.67
2022-09-18T09:48:26.937Z,11.59
2022-09-18T09:49:27.189Z,11.41
2022-09-18T09:50:27.173Z,11.48
2022-09-18T09:51:27.181Z,11.31
2022-09-18T09:52:27.150Z,11.27
2022-09-18T09:53:27.140Z,11.27
2022-09-18T09:54:27.133Z,11.34
2022-09-18T09:55:27.127Z,11.34
2022-09-18T09:56:27.111Z,11.27
2022-09-18T09:57:27.717Z,11.33
2022-09-18T09:58:27.093Z,11.35
2022-09-18T09:59:27.073Z,11.35
2022-09-18T10:00:27.123Z,11.27
2022-09-18T10:01:26.905Z,11.33
2022-09-18T10:02:27.658Z,11.31
2022-09-18T10:03:27.284Z,11.2
2022-09-18T10:04:27.224Z,11.12
2022-09-18T10:05:27.067Z,11.13
2022-09-18T10:06:27.008Z,11
2022-09-18T10:07:26.997Z,11
2022-09-18T10:08:26.742Z,10.84
2022-09-18T10:09:26.957Z,10.79
2022-09-18T10:10:26.951Z,10.9
2022-09-18T10:11:27.191Z,10.88
2022-09-18T10:12:26.670Z,11.03
2022-09-18T10:13:27.551Z,10.94
2022-09-18T10:14:26.908Z,11
2022-09-18T10:15:26.886Z,10.97
2022-09-18T10:16:26.956Z,10.83
2022-09-18T10:17:27.121Z,10.84
2022-09-18T10:18:27.111Z,10.73
2022-09-18T10:19:27.099Z,10.67
2022-09-18T10:20:26.578Z,10.52
2022-09-18T10:21:26.822Z,10.54
2022-09-18T10:22:26.821Z,10.55
2022-09-18T10:23:35.211Z,10.72
2022-09-18T10:24:26.788Z,10.8
2022-09-18T10:25:26.782Z,10.87
2022-09-18T10:26:27.018Z,10.94
2022-09-18T10:27:26.750Z,10.88
2022-09-18T10:28:26.993Z,10.92
2022-09-18T10:29:27.360Z,10.88
2022-09-18T10:30:26.725Z,10.73
2022-09-18T10:31:27.237Z,10.67
2022-09-18T10:32:26.690Z,10.66
2022-09-18T10:33:26.679Z,10.59
2022-09-18T10:34:26.670Z,10.55
2022-09-18T10:35:26.656Z,10.47
2022-09-18T10:36:26.911Z,10.47
2022-09-18T10:37:26.636Z,10.47
2022-09-18T10:38:26.882Z,10.33
2022-09-18T10:39:31.927Z,10.33
2022-09-18T10:40:26.806Z,10.29
2022-09-18T10:41:26.596Z,10.18
2022-09-18T10:42:26.312Z,10.21
2022-09-18T10:43:26.817Z,10.11
2022-09-18T10:44:26.554Z,10.03
2022-09-18T10:45:27.160Z,10.02
2022-09-18T10:46:26.729Z,10.11
2022-09-18T10:47:26.771Z,10.05
2022-09-18T10:48:26.504Z,10.08
2022-09-18T10:49:26.493Z,10.14
2022-09-18T10:50:26.474Z,10.02
2022-09-18T10:51:26.721Z,10.07
2022-09-18T10:52:26.452Z,10
2022-09-18T10:53:26.193Z,10.11
2022-09-18T10:54:26.696Z,10.15
2022-09-18T10:55:26.417Z,10.23
2022-09-18T10:56:26.153Z,10.38
2022-09-18T10:57:26.399Z,10.44
2022-09-18T10:58:26.400Z,10.55
2022-09-18T10:59:26.726Z,10.66
2022-09-18T11:00:26.443Z,10.8
2022-09-18T11:01:27.196Z,10.97
2022-09-18T11:02:26.868Z,11.15
2022-09-18T11:03:26.328Z,11.12
2022-09-18T11:04:26.572Z,11.16
2022-09-18T11:05:26.309Z,11.26
2022-09-18T11:06:26.205Z,11.26
2022-09-18T11:07:30.614Z,11.52
2022-09-18T11:08:26.007Z,11.6
2022-09-18T11:09:26.260Z,11.84
2022-09-18T11:10:26.236Z,11.86
2022-09-18T11:11:26.228Z,11.94
2022-09-18T11:12:26.230Z,12.01
2022-09-18T11:13:26.251Z,11.98
2022-09-18T11:14:26.197Z,12.08
2022-09-18T11:15:25.928Z,12.03
2022-09-18T11:16:26.399Z,12.08
2022-09-18T11:17:26.805Z,12.13
2022-09-18T11:18:26.407Z,12.1
2022-09-18T11:19:26.392Z,12.03
2022-09-18T11:20:26.130Z,12.13
2022-09-18T11:21:26.145Z,12.07
2022-09-18T11:22:26.115Z,11.89
2022-09-18T11:23:26.349Z,11.94
2022-09-18T11:24:25.851Z,11.97
2022-09-18T11:25:26.084Z,12
2022-09-18T11:26:26.344Z,11.91
2022-09-18T11:27:26.062Z,11.94
2022-09-18T11:28:26.072Z,12.01
2022-09-18T11:29:26.044Z,12.04
2022-09-18T11:30:26.023Z,11.95
2022-09-18T11:31:26.469Z,12.15
2022-09-18T11:32:25.739Z,12.15
2022-09-18T11:33:26.632Z,12.16
2022-09-18T11:34:25.980Z,12.16
2022-09-18T11:35:25.959Z,12.26
2022-09-18T11:36:25.952Z,12.22
2022-09-18T11:37:25.951Z,12.22
2022-09-18T11:38:25.940Z,12.33
2022-09-18T11:39:29.083Z,12.31
2022-09-18T11:40:26.275Z,12.28
2022-09-18T11:41:26.178Z,12.25
2022-09-18T11:42:25.900Z,12.34
2022-09-18T11:43:26.141Z,12.34
2022-09-18T11:44:25.872Z,12.37
2022-09-18T11:45:25.653Z,12.29
2022-09-18T11:46:25.807Z,12.36
2022-09-18T11:47:25.894Z,12.29
2022-09-18T11:48:26.087Z,12.36
2022-09-18T11:49:26.443Z,12.31
2022-09-18T11:50:25.809Z,12.26
2022-09-18T11:51:25.807Z,12.29
2022-09-18T11:52:25.628Z,12.26
2022-09-18T11:53:26.034Z,12.36
2022-09-18T11:54:26.024Z,12.38
2022-09-18T11:55:25.766Z,12.22
2022-09-18T11:56:25.757Z,12.2
2022-09-18T11:57:25.742Z,12.26
2022-09-18T11:58:25.733Z,12.18
2022-09-18T11:59:25.973Z,12.18
2022-09-18T12:00:25.967Z,12.2
2022-09-18T12:01:25.701Z,12.23
2022-09-18T12:02:25.983Z,12.18
2022-09-18T12:03:25.784Z,12.11
2022-09-18T12:04:25.919Z,11.97
2022-09-18T12:05:26.277Z,11.89
2022-09-18T12:06:25.649Z,11.75
2022-09-18T12:07:43.224Z,11.66
2022-09-18T12:08:24.519Z,11.59
2022-09-18T12:09:24.261Z,11.59
2022-09-18T12:10:23.991Z,11.48
2022-09-18T12:11:24.230Z,11.35
2022-09-18T12:12:24.473Z,11.42
2022-09-18T12:13:24.206Z,11.35
2022-09-18T12:14:24.196Z,11.38
2022-09-18T12:15:23.935Z,11.35
2022-09-18T12:16:24.105Z,11.1
2022-09-18T12:17:24.416Z,11.15
2022-09-18T12:18:23.913Z,11.18
2022-09-18T12:19:24.397Z,11.16
2022-09-18T12:20:24.378Z,11.27
2022-09-18T12:21:24.749Z,11.33
2022-09-18T12:22:24.103Z,11.35
2022-09-18T12:23:24.094Z,11.45
2022-09-18T12:24:24.074Z,11.56
2022-09-18T12:25:24.069Z,11.59
2022-09-18T12:26:24.059Z,11.64
2022-09-18T12:27:28.385Z,11.84
2022-09-18T12:28:24.294Z,11.91
2022-09-18T12:29:24.019Z,12.05
2022-09-18T12:30:24.258Z,12.05
2022-09-18T12:31:24.492Z,12.16
2022-09-18T12:32:24.239Z,12.28
2022-09-18T12:33:24.239Z,12.31
2022-09-18T12:34:23.958Z,12.26
2022-09-18T12:35:24.220Z,12.31
2022-09-18T12:36:23.942Z,12.29
2022-09-18T12:37:24.549Z,12.33
2022-09-18T12:38:24.172Z,12.34
2022-09-18T12:39:24.835Z,12.28
2022-09-18T12:40:24.892Z,12.41
2022-09-18T12:41:24.557Z,12.41
2022-09-18T12:42:24.541Z,12.43
2022-09-18T12:43:24.535Z,12.55
2022-09-18T12:44:24.273Z,12.47
2022-09-18T12:45:24.358Z,12.55
2022-09-18T12:46:24.495Z,12.58
2022-09-18T12:47:24.241Z,12.43
2022-09-18T12:48:24.235Z,12.43
2022-09-18T12:49:24.721Z,12.41
2022-09-18T12:50:24.719Z,12.31
2022-09-18T12:51:24.459Z,12.33
2022-09-18T12:52:28.127Z,12.25
2022-09-18T12:53:24.917Z,12.07
2022-09-18T12:54:24.411Z,12.03
2022-09-18T12:55:24.404Z,11.85
2022-09-18T12:56:24.387Z,11.76
2022-09-18T12:57:24.631Z,11.81
2022-09-18T12:58:24.109Z,11.67
2022-09-18T12:59:24.356Z,11.59
2022-09-18T13:00:24.363Z,11.43
2022-09-18T13:01:24.426Z,11.39
2022-09-18T13:02:24.059Z,11.33
2022-09-18T13:03:24.767Z,11.13
2022-09-18T13:04:24.289Z,11.09
2022-09-18T13:05:24.030Z,11.15
2022-09-18T13:06:24.269Z,11
2022-09-18T13:07:24.008Z,10.94
2022-09-18T13:08:24.117Z,10.88
2022-09-18T13:09:30.049Z,11.02
2022-09-18T13:10:23.974Z,10.91
2022-09-18T13:11:24.475Z,10.83
2022-09-18T13:12:23.954Z,10.9
2022-09-18T13:13:23.933Z,10.83
2022-09-18T13:14:23.924Z,10.91
2022-09-18T13:15:24.169Z,10.8
2022-09-18T13:16:25.336Z,10.9
2022-09-18T13:17:24.865Z,10.77
2022-09-18T13:18:25.115Z,10.72
2022-09-18T13:19:24.591Z,10.67
2022-09-18T13:20:24.852Z,10.69
2022-09-18T13:21:24.570Z,10.59
2022-09-18T13:22:24.554Z,10.54
2022-09-18T13:23:24.800Z,10.47
2022-09-18T13:24:24.912Z,10.36
2022-09-18T13:25:25.181Z,10.21
2022-09-18T13:26:24.508Z,10.29